createdAt,value
2022-12-18T00:01:28.920Z,15.20
2022-12-18T00:03:57.004Z,32.70
2022-12-18T00:06:26.269Z,16.97
2022-12-18T00:08:54.172Z,17.93
2022-12-18T00:11:25.039Z,15.57
2022-12-18T00:13:54.296Z,17.80
2022-12-18T00:16:24.418Z,18.17
2022-12-18T00:18:54.646Z,17.70
2022-12-18T00:21:22.782Z,17.20
2022-12-18T00:23:51.382Z,16.80
2022-12-18T00:26:25.863Z,16.97
2022-12-18T00:28:53.992Z,17.73
2022-12-18T00:31:24.504Z,18.10
2022-12-18T00:33:53.966Z,16.83
2022-12-18T00:36:29.587Z,16.37
2022-12-18T00:38:59.165Z,16.63
2022-12-18T00:41:45.074Z,15.93
2022-12-18T00:44:16.049Z,17.07
2022-12-18T00:46:45.362Z,17.73
2022-12-18T00:49:12.404Z,17.23
2022-12-18T00:51:39.360Z,16.97
2022-12-18T00:54:06.455Z,15.73
2022-12-18T00:56:33.388Z,17.43
2022-12-18T00:59:00.341Z,17.67
2022-12-18T01:01:27.922Z,16.53
2022-12-18T01:03:54.927Z,15.63
2022-12-18T01:06:21.968Z,15.97
2022-12-18T01:08:48.947Z,17.10
2022-12-18T01:11:19.231Z,17.97
2022-12-18T01:13:46.219Z,16.10
2022-12-18T01:16:16.301Z,17.80
2022-12-18T01:18:43.815Z,16.97
2022-12-18T01:21:14.640Z,16.07
2022-12-18T01:23:42.082Z,17.43
2022-12-18T01:26:14.275Z,17.17
2022-12-18T01:28:41.769Z,15.97
2022-12-18T01:31:20.701Z,15.63
2022-12-18T01:33:49.812Z,16.10
2022-12-18T01:36:24.256Z,16.73
2022-12-18T01:38:52.974Z,15.97
2022-12-18T01:41:26.032Z,15.27
2022-12-18T01:44:00.377Z,16.13
2022-12-18T01:46:28.412Z,16.10
2022-12-18T01:49:02.137Z,14.93
2022-12-18T01:51:31.026Z,14.87
2022-12-18T01:53:58.740Z,15.77
2022-12-18T01:56:25.741Z,14.57
2022-12-18T01:59:04.865Z,16.10
2022-12-18T02:01:33.637Z,14.73
2022-12-18T02:04:24.635Z,14.77
2022-12-18T02:07:26.568Z,16.47
2022-12-18T02:10:03.211Z,15.47
2022-12-18T02:12:46.286Z,15.60
2022-12-18T02:15:24.781Z,15.73
2022-12-18T02:18:02.390Z,14.93
2022-12-18T02:20:50.123Z,16.23
2022-12-18T02:23:37.460Z,15.50
2022-12-18T02:26:26.836Z,15.77
2022-12-18T02:29:23.806Z,14.50
2022-12-18T02:31:56.093Z,14.10
2022-12-18T02:34:29.385Z,14.10
2022-12-18T02:36:58.611Z,14.30
2022-12-18T02:39:27.906Z,13.83
2022-12-18T02:41:55.046Z,14.53
2022-12-18T02:44:22.009Z,15.90
2022-12-18T02:46:54.463Z,15.13
2022-12-18T02:50:03.353Z,14.47
2022-12-18T02:52:51.626Z,13.90
2022-12-18T02:55:48.941Z,12.73
2022-12-18T02:59:09.171Z,13.97
2022-12-18T03:01:53.258Z,13.63
2022-12-18T03:04:27.921Z,14.13
2022-12-18T03:07:01.470Z,13.30
2022-12-18T03:09:37.986Z,14.60
2022-12-18T03:12:25.588Z,13.80
2022-12-18T03:15:04.249Z,16.17
2022-12-18T03:17:34.699Z,14.93
2022-12-18T03:20:11.693Z,14.20
2022-12-18T03:22:42.417Z,13.53
2022-12-18T03:25:14.418Z,13.60
2022-12-18T03:27:48.615Z,14.93
2022-12-18T03:30:18.034Z,14.53
2022-12-18T03:33:08.861Z,14.07
2022-12-18T03:35:41.237Z,12.17
2022-12-18T03:38:08.952Z,11.47
2022-12-18T03:41:24.897Z,13.40
2022-12-18T03:44:12.911Z,14.40
2022-12-18T03:47:17.769Z,13.40
2022-12-18T03:50:12.799Z,12.93
2022-12-18T03:52:53.917Z,12.37
2022-12-18T03:55:22.820Z,12.80
2022-12-18T03:57:51.072Z,13.93
2022-12-18T04:00:20.599Z,12.33
2022-12-18T04:02:53.282Z,13.57
2022-12-18T04:05:22.776Z,12.77
2022-12-18T04:07:51.824Z,12.93
2022-12-18T04:10:19.630Z,13.80
2022-12-18T04:12:46.761Z,13.53
2022-12-18T04:15:14.214Z,13.07
2022-12-18T04:17:49.672Z,13.07
2022-12-18T04:20:17.570Z,12.77
2022-12-18T04:22:44.558Z,13.03
2022-12-18T04:25:13.543Z,13.00
2022-12-18T04:27:40.680Z,12.47
2022-12-18T04:30:09.200Z,10.70
2022-12-18T04:32:36.246Z,12.70
2022-12-18T04:35:05.243Z,11.33
2022-12-18T04:37:32.215Z,12.43
2022-12-18T04:39:59.262Z,13.47
2022-12-18T04:42:26.195Z,11.77
2022-12-18T04:44:53.130Z,12.77
2022-12-18T04:47:20.073Z,11.67
2022-12-18T04:49:47.089Z,11.03
2022-12-18T04:52:14.020Z,11.87
2022-12-18T04:54:40.949Z,10.63
2022-12-18T04:57:07.978Z,11.37
2022-12-18T04:59:34.980Z,11.73
2022-12-18T05:02:02.009Z,11.33
2022-12-18T05:04:29.073Z,11.20
2022-12-18T05:06:56.047Z,10.73
2022-12-18T05:09:22.965Z,11.10
2022-12-18T05:11:50.013Z,11.73
2022-12-18T05:14:16.958Z,11.17
2022-12-18T05:16:43.888Z,11.37
2022-12-18T05:19:11.502Z,11.23
2022-12-18T05:21:38.796Z,11.33
2022-12-18T05:24:06.209Z,11.20
2022-12-18T05:26:33.148Z,11.13
2022-12-18T05:29:00.181Z,11.50
2022-12-18T05:31:27.216Z,11.90
2022-12-18T05:33:55.034Z,12.00
2022-12-18T05:36:21.985Z,11.87
2022-12-18T05:38:48.985Z,13.37
2022-12-18T05:41:16.097Z,13.37
2022-12-18T05:43:43.852Z,13.30
2022-12-18T05:46:16.358Z,14.47
2022-12-18T05:48:43.689Z,13.73
2022-12-18T05:51:15.569Z,14.10
2022-12-18T05:53:43.846Z,15.03
2022-12-18T05:56:22.426Z,15.73
2022-12-18T05:58:54.441Z,15.57
2022-12-18T06:01:26.153Z,16.33
2022-12-18T06:03:53.480Z,16.97
2022-12-18T06:06:27.031Z,15.60
2022-12-18T06:08:55.995Z,16.27
2022-12-18T06:11:27.292Z,17.70
2022-12-18T06:13:58.984Z,17.73
2022-12-18T06:16:28.088Z,18.03
2022-12-18T06:18:58.613Z,18.43
2022-12-18T06:21:26.060Z,19.57
2022-12-18T06:23:53.097Z,19.40
2022-12-18T06:26:26.180Z,17.57
2022-12-18T06:28:54.976Z,18.90
2022-12-18T06:31:22.002Z,20.00
2022-12-18T06:33:49.015Z,18.77
2022-12-18T06:36:16.863Z,19.07
2022-12-18T06:38:45.350Z,18.67
2022-12-18T06:41:16.147Z,19.67
2022-12-18T06:43:44.757Z,19.77
2022-12-18T06:46:12.822Z,20.20
2022-12-18T06:48:40.392Z,20.80
2022-12-18T06:51:07.697Z,18.30
2022-12-18T06:53:34.664Z,18.33
2022-12-18T06:56:10.415Z,18.87
2022-12-18T06:58:39.353Z,17.73
2022-12-18T07:01:09.703Z,17.83
2022-12-18T07:03:38.788Z,19.40
2022-12-18T07:06:07.010Z,19.07
2022-12-18T07:08:34.370Z,19.80
2022-12-18T07:11:05.469Z,19.23
2022-12-18T07:13:32.923Z,20.63
2022-12-18T07:16:26.985Z,19.23
2022-12-18T07:18:56.227Z,19.17
2022-12-18T07:21:24.617Z,19.70
2022-12-18T07:23:51.764Z,19.77
2022-12-18T07:26:21.787Z,20.00
2022-12-18T07:28:49.502Z,20.13
2022-12-18T07:31:21.579Z,20.40
2022-12-18T07:33:50.214Z,21.27
2022-12-18T07:36:17.387Z,19.70
2022-12-18T07:38:47.229Z,20.60
2022-12-18T07:41:14.881Z,21.07
2022-12-18T07:43:42.731Z,21.07
2022-12-18T07:46:11.829Z,21.30
2022-12-18T07:48:42.292Z,20.47
2022-12-18T07:51:11.567Z,20.30
2022-12-18T07:53:39.157Z,20.53
2022-12-18T07:56:28.109Z,19.87
2022-12-18T07:58:58.014Z,18.77
2022-12-18T08:01:25.450Z,18.33
2022-12-18T08:03:52.760Z,19.80
2022-12-18T08:06:22.703Z,20.47
2022-12-18T08:08:56.681Z,19.40
2022-12-18T08:11:26.174Z,18.87
2022-12-18T08:13:53.644Z,17.93
2022-12-18T08:16:22.771Z,18.37
2022-12-18T08:18:50.469Z,18.40
2022-12-18T08:21:30.884Z,19.57
2022-12-18T08:24:00.568Z,20.00
2022-12-18T08:26:30.618Z,18.73
2022-12-18T08:28:59.836Z,18.47
2022-12-18T08:31:29.383Z,20.67
2022-12-18T08:33:57.082Z,19.03
2022-12-18T08:36:25.437Z,19.20
2022-12-18T08:38:54.182Z,19.20
2022-12-18T08:41:22.194Z,17.40
2022-12-18T08:44:07.775Z,19.90
2022-12-18T08:46:40.875Z,20.17
2022-12-18T08:49:09.198Z,17.43
2022-12-18T08:51:37.023Z,19.23
2022-12-18T08:54:06.385Z,18.37
2022-12-18T08:56:34.460Z,18.93
2022-12-18T08:59:01.539Z,20.60
2022-12-18T09:01:29.433Z,20.27
2022-12-18T09:03:56.764Z,20.27
2022-12-18T09:06:24.304Z,20.77
2022-12-18T09:08:51.558Z,19.17
2022-12-18T09:11:25.723Z,19.90
2022-12-18T09:13:54.828Z,19.63
2022-12-18T09:16:30.136Z,19.13
2022-12-18T09:19:02.959Z,18.87
2022-12-18T09:21:35.972Z,17.80
2022-12-18T09:24:08.632Z,18.73
2022-12-18T09:26:36.659Z,17.70
2022-12-18T09:29:04.499Z,18.63
2022-12-18T09:31:31.470Z,17.63
2022-12-18T09:33:58.453Z,18.63
2022-12-18T09:36:25.456Z,19.10
2022-12-18T09:38:52.456Z,18.93
2022-12-18T09:41:48.485Z,18.00
2022-12-18T09:44:41.429Z,18.70
2022-12-18T09:47:21.607Z,20.23
2022-12-18T09:49:53.644Z,20.47
2022-12-18T09:52:26.867Z,19.80
2022-12-18T09:55:11.974Z,19.47
2022-12-18T09:57:48.721Z,19.07
2022-12-18T10:00:23.400Z,19.73
2022-12-18T10:02:54.131Z,20.23
2022-12-18T10:05:42.398Z,20.57
2022-12-18T10:08:25.466Z,20.17
2022-12-18T10:11:27.082Z,19.50
2022-12-18T10:14:16.819Z,19.40
2022-12-18T10:16:59.467Z,20.00
2022-12-18T10:19:35.136Z,20.70
2022-12-18T10:22:16.861Z,20.23
2022-12-18T10:25:05.156Z,19.10
2022-12-18T10:27:32.309Z,20.47
2022-12-18T10:30:02.379Z,20.47
2022-12-18T10:32:31.735Z,19.20
2022-12-18T10:35:00.753Z,19.93
2022-12-18T10:37:30.736Z,19.37
2022-12-18T10:40:21.930Z,20.03
2022-12-18T10:43:05.233Z,22.80
2022-12-18T10:45:32.327Z,19.87
2022-12-18T10:47:59.803Z,20.77
2022-12-18T10:51:09.775Z,18.33
2022-12-18T10:53:29.136Z,19.50
2022-12-18T10:56:03.472Z,19.63
2022-12-18T10:58:33.877Z,19.43
2022-12-18T11:01:13.045Z,21.10
2022-12-18T11:03:47.793Z,19.07
2022-12-18T11:06:19.671Z,18.80
2022-12-18T11:09:26.035Z,21.80
2022-12-18T11:12:00.303Z,19.87
2022-12-18T11:14:34.781Z,21.87
2022-12-18T11:17:24.777Z,21.43
2022-12-18T11:20:10.487Z,22.87
2022-12-18T11:22:39.285Z,22.70
2022-12-18T11:25:32.359Z,21.00
2022-12-18T11:28:26.194Z,22.77
2022-12-18T11:31:17.047Z,22.83
2022-12-18T11:34:28.468Z,23.13
2022-12-18T11:36:56.375Z,23.83
2022-12-18T11:39:47.108Z,24.47
2022-12-18T11:42:39.434Z,23.63
2022-12-18T11:45:12.571Z,22.73
2022-12-18T11:48:25.977Z,24.70
2022-12-18T11:50:59.956Z,24.93
2022-12-18T11:53:28.576Z,24.40
2022-12-18T11:56:15.717Z,26.90
2022-12-18T11:59:18.839Z,26.47
2022-12-18T12:02:11.102Z,26.33
2022-12-18T12:05:27.413Z,24.83
2022-12-18T12:08:25.650Z,27.50
2022-12-18T12:11:21.439Z,27.80
2022-12-18T12:14:02.970Z,26.60
2022-12-18T12:17:10.156Z,26.50
2022-12-18T12:19:42.752Z,26.70
2022-12-18T12:22:31.167Z,26.67
2022-12-18T12:25:29.206Z,26.97
2022-12-18T12:28:17.177Z,26.53
2022-12-18T12:31:27.397Z,27.03
2022-12-18T12:34:08.749Z,25.23
2022-12-18T12:37:18.749Z,27.37
2022-12-18T12:39:49.393Z,26.97
2022-12-18T12:43:01.810Z,27.40
2022-12-18T12:45:57.022Z,25.93
2022-12-18T12:48:37.960Z,26.87
2022-12-18T12:51:33.128Z,25.13
2022-12-18T12:54:02.581Z,26.50
2022-12-18T12:56:47.326Z,25.93
2022-12-18T12:59:36.634Z,26.10
2022-12-18T13:02:16.517Z,26.73
2022-12-18T13:04:59.064Z,27.23
2022-12-18T13:07:47.181Z,28.13
2022-12-18T13:10:32.614Z,26.90
2022-12-18T13:13:17.937Z,27.03
2022-12-18T13:16:09.100Z,25.83
2022-12-18T13:18:36.568Z,25.50
2022-12-18T13:21:24.416Z,25.53
2022-12-18T13:23:51.738Z,27.20
2022-12-18T13:26:22.067Z,28.27
2022-12-18T13:28:56.228Z,28.07
2022-12-18T13:31:41.719Z,28.33
2022-12-18T13:37:42.871Z,23.50
2022-12-18T13:40:41.206Z,26.27
2022-12-18T13:43:25.437Z,25.70
2022-12-18T13:46:43.187Z,27.93
2022-12-18T13:49:42.500Z,27.20
2022-12-18T13:52:34.312Z,26.03
2022-12-18T13:55:08.109Z,26.10
2022-12-18T13:57:41.785Z,24.80
2022-12-18T14:00:24.136Z,23.87
2022-12-18T14:02:52.156Z,25.33
2022-12-18T14:05:30.954Z,26.93
2022-12-18T14:08:05.859Z,24.07
2022-12-18T14:10:42.231Z,24.87
2022-12-18T14:13:43.090Z,25.67
2022-12-18T14:16:17.679Z,22.37
2022-12-18T14:18:56.358Z,25.23
2022-12-18T14:21:31.129Z,25.57
2022-12-18T14:24:17.564Z,23.80
2022-12-18T14:26:51.024Z,25.73
2022-12-18T14:29:27.739Z,22.57
2022-12-18T14:32:18.656Z,24.23
2022-12-18T14:34:52.095Z,24.80
2022-12-18T14:37:27.301Z,24.73
2022-12-18T14:40:10.590Z,24.77
2022-12-18T14:42:38.798Z,22.87
2022-12-18T14:45:42.386Z,24.23
2022-12-18T14:48:23.362Z,25.33
2022-12-18T14:51:04.533Z,23.80
2022-12-18T14:53:39.210Z,23.40
2022-12-18T14:56:35.553Z,25.17
2022-12-18T14:59:23.865Z,25.37
2022-12-18T15:02:12.287Z,22.17
2022-12-18T15:04:44.667Z,23.03
2022-12-18T15:07:24.484Z,22.97
2022-12-18T15:10:22.137Z,23.73
2022-12-18T15:13:10.576Z,24.23
2022-12-18T15:15:37.648Z,23.23
2022-12-18T15:18:13.669Z,23.23
2022-12-18T15:20:49.538Z,22.90
2022-12-18T15:23:45.417Z,24.47
2022-12-18T15:26:15.920Z,24.73
2022-12-18T15:28:57.014Z,23.63
2022-12-18T15:31:29.849Z,23.33
2022-12-18T15:33:56.930Z,23.87
2022-12-18T15:36:26.490Z,24.63
2022-12-18T15:39:02.194Z,22.90
2022-12-18T15:41:37.669Z,23.53
2022-12-18T15:44:26.467Z,24.43
2022-12-18T15:46:53.640Z,24.70
2022-12-18T15:49:20.778Z,23.30
2022-12-18T15:51:55.867Z,23.57
2022-12-18T15:54:43.227Z,24.53
2022-12-18T15:57:24.197Z,24.43
2022-12-18T15:59:59.179Z,26.13
2022-12-18T16:02:26.893Z,26.90
2022-12-18T16:04:55.113Z,26.27
2022-12-18T16:07:24.579Z,26.30
2022-12-18T16:09:52.735Z,25.40
2022-12-18T16:12:25.532Z,27.10
2022-12-18T16:14:52.537Z,26.47
2022-12-18T16:17:19.528Z,27.60
2022-12-18T16:19:46.754Z,27.57
2022-12-18T16:22:26.307Z,28.07
2022-12-18T16:24:54.417Z,26.13
2022-12-18T16:27:22.817Z,25.17
2022-12-18T16:29:50.388Z,26.70
2022-12-18T16:32:23.420Z,25.80
2022-12-18T16:34:50.822Z,25.47
2022-12-18T16:37:18.171Z,24.50
2022-12-18T16:39:45.598Z,24.30
2022-12-18T16:42:19.820Z,24.27
2022-12-18T16:44:48.974Z,25.37
2022-12-18T16:47:16.842Z,25.47
2022-12-18T16:49:51.724Z,24.37
2022-12-18T16:52:19.303Z,25.47
2022-12-18T16:54:46.246Z,24.30
2022-12-18T16:57:18.038Z,22.53
2022-12-18T16:59:45.882Z,22.93
2022-12-18T17:02:30.373Z,23.00
2022-12-18T17:04:58.625Z,23.93
2022-12-18T17:07:27.355Z,20.67
2022-12-18T17:09:55.159Z,22.67
2022-12-18T17:12:23.559Z,23.63
2022-12-18T17:14:50.697Z,22.40
2022-12-18T17:17:21.482Z,22.13
2022-12-18T17:19:50.256Z,22.93
2022-12-18T17:22:17.873Z,24.57
2022-12-18T17:24:44.962Z,21.83
2022-12-18T17:27:12.209Z,22.67
2022-12-18T17:29:45.380Z,22.43
2022-12-18T17:32:14.972Z,23.60
2022-12-18T17:34:42.243Z,23.23
2022-12-18T17:37:09.902Z,22.67
2022-12-18T17:39:37.461Z,22.63
2022-12-18T17:42:05.313Z,22.80
2022-12-18T17:44:34.479Z,22.07
2022-12-18T17:47:02.381Z,22.03
2022-12-18T17:49:29.683Z,22.00
2022-12-18T17:51:56.668Z,21.60
2022-12-18T17:54:23.883Z,20.77
2022-12-18T17:56:51.029Z,23.43
2022-12-18T17:59:18.060Z,20.87
2022-12-18T18:01:45.724Z,24.27
2022-12-18T18:04:14.135Z,23.83
2022-12-18T18:06:41.789Z,23.63
2022-12-18T18:09:15.135Z,24.30
2022-12-18T18:12:03.739Z,22.70
2022-12-18T18:14:31.409Z,22.20
2022-12-18T18:17:04.307Z,22.70
2022-12-18T18:19:33.119Z,21.47
2022-12-18T18:22:00.503Z,22.13
2022-12-18T18:24:28.148Z,22.47
2022-12-18T18:26:55.102Z,22.27
2022-12-18T18:29:26.706Z,21.73
2022-12-18T18:31:54.904Z,21.97
2022-12-18T18:34:28.765Z,21.37
2022-12-18T18:36:55.825Z,23.40
2022-12-18T18:39:23.460Z,23.70
2022-12-18T18:41:50.578Z,22.53
2022-12-18T18:44:20.652Z,21.47
2022-12-18T18:46:58.543Z,21.90
2022-12-18T18:49:27.731Z,21.47
2022-12-18T18:51:56.542Z,21.93
2022-12-18T18:54:24.614Z,21.40
2022-12-18T18:59:38.908Z,22.40
2022-12-18T19:02:06.539Z,22.43
2022-12-18T19:04:34.613Z,21.77
2022-12-18T19:07:01.642Z,22.60
2022-12-18T19:09:29.513Z,22.57
2022-12-18T19:12:15.718Z,23.30
2022-12-18T19:14:43.987Z,22.57
2022-12-18T19:17:11.394Z,23.83
2022-12-18T19:19:38.960Z,22.47
2022-12-18T19:22:06.323Z,22.20
2022-12-18T19:24:33.379Z,23.03
2022-12-18T19:27:00.378Z,21.67
2022-12-18T19:29:27.441Z,24.47
2022-12-18T19:31:54.433Z,25.53
2022-12-18T19:34:21.534Z,24.00
2022-12-18T19:36:48.520Z,24.10
2022-12-18T19:39:19.275Z,23.53
2022-12-18T19:41:47.309Z,24.87
2022-12-18T19:44:16.799Z,23.87
2022-12-18T19:46:46.258Z,22.43
2022-12-18T19:49:17.701Z,22.13
2022-12-18T19:51:45.848Z,21.50
2022-12-18T19:54:16.908Z,22.60
2022-12-18T19:56:45.466Z,20.33
2022-12-18T19:59:12.879Z,22.47
2022-12-18T20:01:40.235Z,21.67
2022-12-18T20:04:07.523Z,20.60
2022-12-18T20:06:56.500Z,18.63
2022-12-18T20:09:23.698Z,22.07
2022-12-18T20:11:50.871Z,21.37
2022-12-18T20:14:22.688Z,18.40
2022-12-18T20:16:51.534Z,19.27
2022-12-18T20:19:19.357Z,19.03
2022-12-18T20:21:46.635Z,19.37
2022-12-18T20:24:13.810Z,19.20
2022-12-18T20:26:40.895Z,18.00
2022-12-18T20:29:07.910Z,19.30
2022-12-18T20:31:35.113Z,19.37
2022-12-18T20:34:02.711Z,18.87
2022-12-18T20:36:32.835Z,19.90
2022-12-18T20:39:02.626Z,19.43
2022-12-18T20:41:38.085Z,18.53
2022-12-18T20:44:11.185Z,18.13
2022-12-18T20:46:52.913Z,18.10
2022-12-18T20:49:19.952Z,17.53
2022-12-18T20:51:51.602Z,17.93
2022-12-18T20:54:18.627Z,18.10
2022-12-18T20:56:45.597Z,16.60
2022-12-18T20:59:12.957Z,17.37
2022-12-18T21:01:40.859Z,16.90
2022-12-18T21:04:14.507Z,18.17
2022-12-18T21:06:42.922Z,17.50
2022-12-18T21:09:12.994Z,18.83
2022-12-18T21:12:10.374Z,18.13
2022-12-18T21:14:39.443Z,18.60
2022-12-18T21:17:06.578Z,20.30
2022-12-18T21:19:33.627Z,20.03
2022-12-18T21:22:00.856Z,20.03
2022-12-18T21:24:28.196Z,19.80
2022-12-18T21:26:58.990Z,20.40
2022-12-18T21:29:26.724Z,20.63
2022-12-18T21:31:54.958Z,19.20
2022-12-18T21:34:30.318Z,19.40
2022-12-18T21:36:59.734Z,19.93
2022-12-18T21:39:28.675Z,18.77
2022-12-18T21:42:15.212Z,21.47
2022-12-18T21:44:43.293Z,18.87
2022-12-18T21:47:22.387Z,20.90
2022-12-18T21:49:53.641Z,21.43
2022-12-18T21:52:29.834Z,20.97
2022-12-18T21:55:08.909Z,17.50
2022-12-18T21:57:39.102Z,16.67
2022-12-18T22:00:10.517Z,17.00
2022-12-18T22:02:39.882Z,17.60
2022-12-18T22:05:07.561Z,17.90
2022-12-18T22:07:34.723Z,16.63
2022-12-18T22:10:02.169Z,18.17
2022-12-18T22:12:38.050Z,17.47
2022-12-18T22:15:21.011Z,18.10
2022-12-18T22:17:50.527Z,17.67
2022-12-18T22:20:20.194Z,19.17
2022-12-18T22:22:48.580Z,18.10
2022-12-18T22:25:15.593Z,18.97
2022-12-18T22:27:43.130Z,18.30
2022-12-18T22:30:14.488Z,16.13
2022-12-18T22:32:41.494Z,18.33
2022-12-18T22:35:14.290Z,17.30
2022-12-18T22:37:42.919Z,18.10
2022-12-18T22:40:25.446Z,17.83
2022-12-18T22:42:54.466Z,19.03
2022-12-18T22:45:22.932Z,17.20
2022-12-18T22:47:50.485Z,18.77
2022-12-18T22:50:17.757Z,17.73
2022-12-18T22:52:45.012Z,17.43
2022-12-18T22:55:11.950Z,18.70
2022-12-18T22:57:40.728Z,16.47
2022-12-18T23:00:13.549Z,18.00
2022-12-18T23:02:40.774Z,17.30
2022-12-18T23:05:08.567Z,18.43
2022-12-18T23:07:35.656Z,18.13
2022-12-18T23:10:02.630Z,18.00
2022-12-18T23:12:29.587Z,17.30
2022-12-18T23:14:56.624Z,18.27
2022-12-18T23:17:23.659Z,18.20
2022-12-18T23:19:51.108Z,18.03
2022-12-18T23:22:18.279Z,17.43
2022-12-18T23:24:46.064Z,18.17
2022-12-18T23:27:13.213Z,18.87
2022-12-18T23:29:40.868Z,18.40
2022-12-18T23:32:08.494Z,17.33
2022-12-18T23:34:35.531Z,16.37
2022-12-18T23:37:03.832Z,14.93
2022-12-18T23:39:31.227Z,15.27
2022-12-18T23:42:01.725Z,14.93
2022-12-18T23:44:28.925Z,13.60
2022-12-18T23:46:56.157Z,14.10
2022-12-18T23:49:23.419Z,15.53
2022-12-18T23:51:50.714Z,13.80
2022-12-18T23:54:22.369Z,15.97
2022-12-18T23:57:00.900Z,13.57
2022-12-18T23:59:27.880Z,12.30
